sensor_id;sensor_type;location;lat;lon;timestamp;temperature;humidity
63317;DHT22;49822;41.468;13.560;2023-04-05T00:00:46;9.70;64.50
63317;DHT22;49822;41.468;13.560;2023-04-05T00:03:16;9.70;64.60
63317;DHT22;49822;41.468;13.560;2023-04-05T00:05:45;9.70;64.90
63317;DHT22;49822;41.468;13.560;2023-04-05T00:08:16;9.70;64.60
63317;DHT22;49822;41.468;13.560;2023-04-05T00:10:50;9.80;64.90
63317;DHT22;49822;41.468;13.560;2023-04-05T00:13:18;9.70;64.60
63317;DHT22;49822;41.468;13.560;2023-04-05T00:15:47;9.80;64.60
63317;DHT22;49822;41.468;13.560;2023-04-05T00:18:15;9.70;64.60
63317;DHT22;49822;41.468;13.560;2023-04-05T00:20:52;9.70;64.70
63317;DHT22;49822;41.468;13.560;2023-04-05T00:23:20;9.70;64.40
63317;DHT22;49822;41.468;13.560;2023-04-05T00:25:48;9.60;64.90
63317;DHT22;49822;41.468;13.560;2023-04-05T00:28:16;9.70;64.90
63317;DHT22;49822;41.468;13.560;2023-04-05T00:30:45;9.60;64.80
63317;DHT22;49822;41.468;13.560;2023-04-05T00:33:15;9.50;64.70
63317;DHT22;49822;41.468;13.560;2023-04-05T00:35:42;9.60;64.90
63317;DHT22;49822;41.468;13.560;2023-04-05T00:38:09;9.60;65.10
63317;DHT22;49822;41.468;13.560;2023-04-05T00:40:37;9.60;65.20
63317;DHT22;49822;41.468;13.560;2023-04-05T00:43:05;9.60;65.40
63317;DHT22;49822;41.468;13.560;2023-04-05T00:45:33;9.60;65.20
63317;DHT22;49822;41.468;13.560;2023-04-05T00:48:04;9.60;65.00
63317;DHT22;49822;41.468;13.560;2023-04-05T00:50:33;9.60;65.00
63317;DHT22;49822;41.468;13.560;2023-04-05T00:53:01;9.50;64.90
63317;DHT22;49822;41.468;13.560;2023-04-05T00:55:29;9.50;65.50
63317;DHT22;49822;41.468;13.560;2023-04-05T00:58:00;9.50;65.40
63317;DHT22;49822;41.468;13.560;2023-04-05T01:00:30;9.60;65.30
63317;DHT22;49822;41.468;13.560;2023-04-05T01:03:02;9.60;65.20
63317;DHT22;49822;41.468;13.560;2023-04-05T01:05:46;9.60;65.30
63317;DHT22;49822;41.468;13.560;2023-04-05T01:08:27;9.50;65.50
63317;DHT22;49822;41.468;13.560;2023-04-05T01:10:59;9.50;65.50
63317;DHT22;49822;41.468;13.560;2023-04-05T01:13:28;9.40;65.10
63317;DHT22;49822;41.468;13.560;2023-04-05T01:15:56;9.50;65.50
63317;DHT22;49822;41.468;13.560;2023-04-05T01:18:24;9.50;65.70
63317;DHT22;49822;41.468;13.560;2023-04-05T01:23:58;9.60;65.70
63317;DHT22;49822;41.468;13.560;2023-04-05T01:26:51;9.50;65.50
63317;DHT22;49822;41.468;13.560;2023-04-05T01:30:03;9.60;65.70
63317;DHT22;49822;41.468;13.560;2023-04-05T01:35:19;9.60;65.60
63317;DHT22;49822;41.468;13.560;2023-04-05T01:37:54;9.60;66.20
63317;DHT22;49822;41.468;13.560;2023-04-05T01:40:23;9.50;66.10
63317;DHT22;49822;41.468;13.560;2023-04-05T01:42:51;9.50;65.90
63317;DHT22;49822;41.468;13.560;2023-04-05T01:45:19;9.60;66.20
63317;DHT22;49822;41.468;13.560;2023-04-05T01:47:46;9.50;66.30
63317;DHT22;49822;41.468;13.560;2023-04-05T01:50:17;9.60;66.60
63317;DHT22;49822;41.468;13.560;2023-04-05T01:52:44;9.60;66.50
63317;DHT22;49822;41.468;13.560;2023-04-05T01:55:11;9.40;66.90
63317;DHT22;49822;41.468;13.560;2023-04-05T01:57:39;9.50;66.80
63317;DHT22;49822;41.468;13.560;2023-04-05T02:00:07;9.50;66.90
63317;DHT22;49822;41.468;13.560;2023-04-05T02:02:38;9.50;66.70
63317;DHT22;49822;41.468;13.560;2023-04-05T02:05:06;9.50;66.30
63317;DHT22;49822;41.468;13.560;2023-04-05T02:07:35;9.40;66.70
63317;DHT22;49822;41.468;13.560;2023-04-05T02:10:04;9.50;66.20
63317;DHT22;49822;41.468;13.560;2023-04-05T02:12:31;9.50;66.40
63317;DHT22;49822;41.468;13.560;2023-04-05T02:14:59;9.40;66.50
63317;DHT22;49822;41.468;13.560;2023-04-05T02:17:27;9.40;66.80
63317;DHT22;49822;41.468;13.560;2023-04-05T02:20:00;9.40;66.50
63317;DHT22;49822;41.468;13.560;2023-04-05T02:22:33;9.40;66.60
63317;DHT22;49822;41.468;13.560;2023-04-05T02:25:01;9.40;66.60
63317;DHT22;49822;41.468;13.560;2023-04-05T02:27:29;9.30;66.70
63317;DHT22;49822;41.468;13.560;2023-04-05T02:29:56;9.40;67.10
63317;DHT22;49822;41.468;13.560;2023-04-05T02:32:24;9.40;67.30
63317;DHT22;49822;41.468;13.560;2023-04-05T02:34:52;9.40;66.90
63317;DHT22;49822;41.468;13.560;2023-04-05T02:37:22;9.20;67.10
63317;DHT22;49822;41.468;13.560;2023-04-05T02:39:52;9.30;66.90
63317;DHT22;49822;41.468;13.560;2023-04-05T02:42:20;9.30;66.90
63317;DHT22;49822;41.468;13.560;2023-04-05T02:44:50;9.30;66.90
63317;DHT22;49822;41.468;13.560;2023-04-05T02:47:20;9.40;67.10
63317;DHT22;49822;41.468;13.560;2023-04-05T02:49:55;9.40;67.10
63317;DHT22;49822;41.468;13.560;2023-04-05T02:52:25;9.30;67.10
63317;DHT22;49822;41.468;13.560;2023-04-05T02:54:53;9.30;67.10
63317;DHT22;49822;41.468;13.560;2023-04-05T02:57:25;9.30;66.80
63317;DHT22;49822;41.468;13.560;2023-04-05T03:00:04;9.40;66.80
63317;DHT22;49822;41.468;13.560;2023-04-05T03:02:32;9.20;67.00
63317;DHT22;49822;41.468;13.560;2023-04-05T03:05:02;9.40;67.10
63317;DHT22;49822;41.468;13.560;2023-04-05T03:07:31;9.30;67.40
63317;DHT22;49822;41.468;13.560;2023-04-05T03:10:03;9.50;67.10
63317;DHT22;49822;41.468;13.560;2023-04-05T03:12:32;9.40;67.00
63317;DHT22;49822;41.468;13.560;2023-04-05T03:15:00;9.40;67.00
63317;DHT22;49822;41.468;13.560;2023-04-05T03:17:35;9.30;67.30
63317;DHT22;49822;41.468;13.560;2023-04-05T03:20:04;9.40;67.50
63317;DHT22;49822;41.468;13.560;2023-04-05T03:22:36;9.40;67.40
63317;DHT22;49822;41.468;13.560;2023-04-05T03:25:05;9.40;67.00
63317;DHT22;49822;41.468;13.560;2023-04-05T03:27:40;9.20;67.70
63317;DHT22;49822;41.468;13.560;2023-04-05T03:30:11;9.30;67.10
63317;DHT22;49822;41.468;13.560;2023-04-05T03:32:46;9.30;67.50
63317;DHT22;49822;41.468;13.560;2023-04-05T03:35:32;9.30;67.20
63317;DHT22;49822;41.468;13.560;2023-04-05T03:38:00;9.20;67.30
63317;DHT22;49822;41.468;13.560;2023-04-05T03:40:28;9.30;67.50
63317;DHT22;49822;41.468;13.560;2023-04-05T03:42:56;9.20;67.40
63317;DHT22;49822;41.468;13.560;2023-04-05T03:45:23;9.30;67.60
63317;DHT22;49822;41.468;13.560;2023-04-05T03:47:51;9.30;67.30
63317;DHT22;49822;41.468;13.560;2023-04-05T03:50:20;9.30;67.40
63317;DHT22;49822;41.468;13.560;2023-04-05T03:52:48;9.30;67.70
63317;DHT22;49822;41.468;13.560;2023-04-05T03:55:15;9.30;67.70
63317;DHT22;49822;41.468;13.560;2023-04-05T03:57:46;9.20;67.40
63317;DHT22;49822;41.468;13.560;2023-04-05T04:00:25;9.20;67.90
63317;DHT22;49822;41.468;13.560;2023-04-05T04:03:10;9.30;67.50
63317;DHT22;49822;41.468;13.560;2023-04-05T04:05:41;9.30;67.70
63317;DHT22;49822;41.468;13.560;2023-04-05T04:08:09;9.30;67.90
63317;DHT22;49822;41.468;13.560;2023-04-05T04:10:37;9.30;67.90
63317;DHT22;49822;41.468;13.560;2023-04-05T04:13:14;9.30;67.70
63317;DHT22;49822;41.468;13.560;2023-04-05T04:15:42;9.30;67.70
63317;DHT22;49822;41.468;13.560;2023-04-05T04:18:29;9.30;67.70
63317;DHT22;49822;41.468;13.560;2023-04-05T04:21:19;9.30;67.70
63317;DHT22;49822;41.468;13.560;2023-04-05T04:24:10;9.30;67.90
63317;DHT22;49822;41.468;13.560;2023-04-05T04:27:01;9.20;68.20
63317;DHT22;49822;41.468;13.560;2023-04-05T04:29:43;9.40;68.20
63317;DHT22;49822;41.468;13.560;2023-04-05T04:32:31;9.30;68.00
63317;DHT22;49822;41.468;13.560;2023-04-05T04:36:09;9.40;68.00
63317;DHT22;49822;41.468;13.560;2023-04-05T04:39:00;9.40;67.90
63317;DHT22;49822;41.468;13.560;2023-04-05T04:42:04;9.50;68.20
63317;DHT22;49822;41.468;13.560;2023-04-05T04:44:56;9.40;68.40
63317;DHT22;49822;41.468;13.560;2023-04-05T04:47:43;9.40;68.20
63317;DHT22;49822;41.468;13.560;2023-04-05T04:50:18;9.40;67.90
63317;DHT22;49822;41.468;13.560;2023-04-05T04:52:46;9.40;68.20
63317;DHT22;49822;41.468;13.560;2023-04-05T04:55:14;9.30;68.40
63317;DHT22;49822;41.468;13.560;2023-04-05T04:57:45;9.30;68.50
63317;DHT22;49822;41.468;13.560;2023-04-05T05:00:12;9.20;68.40
63317;DHT22;49822;41.468;13.560;2023-04-05T05:02:42;9.30;68.60
63317;DHT22;49822;41.468;13.560;2023-04-05T05:05:13;9.30;68.50
63317;DHT22;49822;41.468;13.560;2023-04-05T05:07:41;9.30;68.40
63317;DHT22;49822;41.468;13.560;2023-04-05T05:10:10;9.20;68.80
63317;DHT22;49822;41.468;13.560;2023-04-05T05:12:37;9.20;68.80
63317;DHT22;49822;41.468;13.560;2023-04-05T05:15:05;9.30;68.80
63317;DHT22;49822;41.468;13.560;2023-04-05T05:17:34;9.30;68.60
63317;DHT22;49822;41.468;13.560;2023-04-05T05:20:01;9.30;68.50
63317;DHT22;49822;41.468;13.560;2023-04-05T05:22:32;9.30;68.70
63317;DHT22;49822;41.468;13.560;2023-04-05T05:24:59;9.30;68.60
63317;DHT22;49822;41.468;13.560;2023-04-05T05:27:27;9.40;68.90
63317;DHT22;49822;41.468;13.560;2023-04-05T05:29:54;9.20;68.20
63317;DHT22;49822;41.468;13.560;2023-04-05T05:32:22;9.30;68.80
63317;DHT22;49822;41.468;13.560;2023-04-05T05:34:50;9.30;68.40
63317;DHT22;49822;41.468;13.560;2023-04-05T05:37:17;9.20;68.80
63317;DHT22;49822;41.468;13.560;2023-04-05T05:39:44;9.20;68.90
63317;DHT22;49822;41.468;13.560;2023-04-05T05:42:12;9.20;69.00
63317;DHT22;49822;41.468;13.560;2023-04-05T05:44:39;9.30;68.80
63317;DHT22;49822;41.468;13.560;2023-04-05T05:47:07;9.20;69.10
63317;DHT22;49822;41.468;13.560;2023-04-05T05:49:34;9.10;69.10
63317;DHT22;49822;41.468;13.560;2023-04-05T05:52:02;9.20;69.10
63317;DHT22;49822;41.468;13.560;2023-04-05T05:54:30;9.20;69.10
63317;DHT22;49822;41.468;13.560;2023-04-05T05:56:57;9.20;68.90
63317;DHT22;49822;41.468;13.560;2023-04-05T05:59:25;9.20;69.10
63317;DHT22;49822;41.468;13.560;2023-04-05T06:01:53;9.10;68.70
63317;DHT22;49822;41.468;13.560;2023-04-05T06:04:21;9.20;69.00
63317;DHT22;49822;41.468;13.560;2023-04-05T06:06:49;9.20;68.90
63317;DHT22;49822;41.468;13.560;2023-04-05T06:09:16;9.40;68.80
63317;DHT22;49822;41.468;13.560;2023-04-05T06:11:43;9.40;68.50
63317;DHT22;49822;41.468;13.560;2023-04-05T06:14:23;9.40;69.20
63317;DHT22;49822;41.468;13.560;2023-04-05T06:16:51;9.40;68.60
63317;DHT22;49822;41.468;13.560;2023-04-05T06:19:18;9.40;68.90
63317;DHT22;49822;41.468;13.560;2023-04-05T06:21:45;9.50;68.90
63317;DHT22;49822;41.468;13.560;2023-04-05T06:24:13;9.50;68.60
63317;DHT22;49822;41.468;13.560;2023-04-05T06:26:40;9.40;68.90
63317;DHT22;49822;41.468;13.560;2023-04-05T06:29:08;9.50;68.40
63317;DHT22;49822;41.468;13.560;2023-04-05T06:31:36;9.50;68.80
63317;DHT22;49822;41.468;13.560;2023-04-05T06:34:04;9.50;68.40
63317;DHT22;49822;41.468;13.560;2023-04-05T06:36:32;9.50;68.20
63317;DHT22;49822;41.468;13.560;2023-04-05T06:39:00;9.70;68.20
63317;DHT22;49822;41.468;13.560;2023-04-05T06:41:27;9.80;68.30
63317;DHT22;49822;41.468;13.560;2023-04-05T06:43:55;9.70;67.50
63317;DHT22;49822;41.468;13.560;2023-04-05T06:46:23;9.90;67.60
63317;DHT22;49822;41.468;13.560;2023-04-05T06:48:51;9.90;67.60
63317;DHT22;49822;41.468;13.560;2023-04-05T06:51:18;10.00;67.20
63317;DHT22;49822;41.468;13.560;2023-04-05T06:53:47;10.10;67.30
63317;DHT22;49822;41.468;13.560;2023-04-05T06:56:14;10.10;66.70
63317;DHT22;49822;41.468;13.560;2023-04-05T06:58:41;10.10;67.70
63317;DHT22;49822;41.468;13.560;2023-04-05T07:01:10;10.00;67.30
63317;DHT22;49822;41.468;13.560;2023-04-05T07:03:38;9.90;67.40
63317;DHT22;49822;41.468;13.560;2023-04-05T07:06:05;10.00;67.00
63317;DHT22;49822;41.468;13.560;2023-04-05T07:08:33;9.90;67.50
63317;DHT22;49822;41.468;13.560;2023-04-05T07:11:00;10.00;67.50
63317;DHT22;49822;41.468;13.560;2023-04-05T07:13:28;10.10;67.60
63317;DHT22;49822;41.468;13.560;2023-04-05T07:15:59;10.10;67.10
63317;DHT22;49822;41.468;13.560;2023-04-05T07:18:27;10.10;66.60
63317;DHT22;49822;41.468;13.560;2023-04-05T07:20:57;10.10;67.10
63317;DHT22;49822;41.468;13.560;2023-04-05T07:23:27;10.00;67.50
63317;DHT22;49822;41.468;13.560;2023-04-05T07:26:02;9.90;66.60
63317;DHT22;49822;41.468;13.560;2023-04-05T07:28:34;9.80;66.50
63317;DHT22;49822;41.468;13.560;2023-04-05T07:31:05;9.90;66.90
63317;DHT22;49822;41.468;13.560;2023-04-05T07:33:35;10.00;66.90
63317;DHT22;49822;41.468;13.560;2023-04-05T07:36:03;10.10;67.20
63317;DHT22;49822;41.468;13.560;2023-04-05T07:38:30;10.20;66.90
63317;DHT22;49822;41.468;13.560;2023-04-05T07:40:58;10.30;66.80
63317;DHT22;49822;41.468;13.560;2023-04-05T07:43:25;10.30;66.40
63317;DHT22;49822;41.468;13.560;2023-04-05T07:46:00;10.40;66.50
63317;DHT22;49822;41.468;13.560;2023-04-05T07:48:29;10.40;66.50
63317;DHT22;49822;41.468;13.560;2023-04-05T07:51:05;10.40;66.80
63317;DHT22;49822;41.468;13.560;2023-04-05T07:53:34;10.50;66.70
63317;DHT22;49822;41.468;13.560;2023-04-05T07:56:06;10.60;66.50
63317;DHT22;49822;41.468;13.560;2023-04-05T07:58:34;10.60;65.20
63317;DHT22;49822;41.468;13.560;2023-04-05T08:01:03;10.50;65.90
63317;DHT22;49822;41.468;13.560;2023-04-05T08:03:31;10.70;66.30
63317;DHT22;49822;41.468;13.560;2023-04-05T08:06:15;10.80;66.20
63317;DHT22;49822;41.468;13.560;2023-04-05T08:08:45;10.80;64.90
63317;DHT22;49822;41.468;13.560;2023-04-05T08:11:13;10.90;65.30
63317;DHT22;49822;41.468;13.560;2023-04-05T08:13:41;11.00;65.60
63317;DHT22;49822;41.468;13.560;2023-04-05T08:16:12;11.00;65.60
63317;DHT22;49822;41.468;13.560;2023-04-05T08:18:40;11.10;64.90
63317;DHT22;49822;41.468;13.560;2023-04-05T08:21:07;11.10;64.80
63317;DHT22;49822;41.468;13.560;2023-04-05T08:23:35;11.10;65.50
63317;DHT22;49822;41.468;13.560;2023-04-05T08:26:02;11.30;64.60
63317;DHT22;49822;41.468;13.560;2023-04-05T08:28:30;11.20;64.60
63317;DHT22;49822;41.468;13.560;2023-04-05T08:30:57;11.30;64.90
63317;DHT22;49822;41.468;13.560;2023-04-05T08:33:25;11.30;65.50
63317;DHT22;49822;41.468;13.560;2023-04-05T08:35:54;11.30;64.20
63317;DHT22;49822;41.468;13.560;2023-04-05T08:38:22;11.40;64.20
63317;DHT22;49822;41.468;13.560;2023-04-05T08:40:50;11.30;64.10
63317;DHT22;49822;41.468;13.560;2023-04-05T08:46:24;12.00;64.70
63317;DHT22;49822;41.468;13.560;2023-04-05T08:48:52;12.30;64.10
63317;DHT22;49822;41.468;13.560;2023-04-05T08:51:21;12.70;63.80
63317;DHT22;49822;41.468;13.560;2023-04-05T08:53:49;12.70;63.20
63317;DHT22;49822;41.468;13.560;2023-04-05T08:56:30;12.40;62.60
63317;DHT22;49822;41.468;13.560;2023-04-05T09:01:31;12.30;62.00
63317;DHT22;49822;41.468;13.560;2023-04-05T09:04:00;12.30;63.00
63317;DHT22;49822;41.468;13.560;2023-04-05T09:06:28;12.40;62.50
63317;DHT22;49822;41.468;13.560;2023-04-05T09:08:57;12.60;62.70
63317;DHT22;49822;41.468;13.560;2023-04-05T09:11:24;12.70;61.30
63317;DHT22;49822;41.468;13.560;2023-04-05T09:13:52;12.60;61.20
63317;DHT22;49822;41.468;13.560;2023-04-05T09:16:19;12.60;61.90
63317;DHT22;49822;41.468;13.560;2023-04-05T09:18:47;12.80;60.90
63317;DHT22;49822;41.468;13.560;2023-04-05T09:21:15;12.80;61.30
63317;DHT22;49822;41.468;13.560;2023-04-05T09:23:53;12.80;61.30
63317;DHT22;49822;41.468;13.560;2023-04-05T09:26:23;12.80;61.50
63317;DHT22;49822;41.468;13.560;2023-04-05T09:28:58;13.00;61.50
63317;DHT22;49822;41.468;13.560;2023-04-05T09:31:33;13.20;60.60
63317;DHT22;49822;41.468;13.560;2023-04-05T09:34:05;13.20;59.80
63317;DHT22;49822;41.468;13.560;2023-04-05T09:36:33;13.10;60.80
63317;DHT22;49822;41.468;13.560;2023-04-05T09:39:05;13.30;61.40
63317;DHT22;49822;41.468;13.560;2023-04-05T09:41:35;13.60;61.10
63317;DHT22;49822;41.468;13.560;2023-04-05T09:44:05;13.60;61.00
63317;DHT22;49822;41.468;13.560;2023-04-05T09:46:34;13.70;60.40
63317;DHT22;49822;41.468;13.560;2023-04-05T09:49:04;13.40;59.30
63317;DHT22;49822;41.468;13.560;2023-04-05T09:51:38;13.60;60.60
63317;DHT22;49822;41.468;13.560;2023-04-05T09:54:09;13.40;60.40
63317;DHT22;49822;41.468;13.560;2023-04-05T09:56:39;13.50;61.00
63317;DHT22;49822;41.468;13.560;2023-04-05T09:59:10;13.60;60.00
63317;DHT22;49822;41.468;13.560;2023-04-05T10:01:42;13.70;60.70
63317;DHT22;49822;41.468;13.560;2023-04-05T10:04:10;13.60;60.80
63317;DHT22;49822;41.468;13.560;2023-04-05T10:06:40;13.70;60.70
63317;DHT22;49822;41.468;13.560;2023-04-05T10:09:09;13.60;61.20
63317;DHT22;49822;41.468;13.560;2023-04-05T10:11:37;13.60;60.90
63317;DHT22;49822;41.468;13.560;2023-04-05T10:14:07;13.80;61.00
63317;DHT22;49822;41.468;13.560;2023-04-05T10:16:44;14.00;60.80
63317;DHT22;49822;41.468;13.560;2023-04-05T10:19:33;14.30;60.10
63317;DHT22;49822;41.468;13.560;2023-04-05T10:22:11;14.20;58.70
63317;DHT22;49822;41.468;13.560;2023-04-05T10:24:48;14.00;60.30
63317;DHT22;49822;41.468;13.560;2023-04-05T10:27:30;14.10;60.40
63317;DHT22;49822;41.468;13.560;2023-04-05T10:30:07;13.90;60.00
63317;DHT22;49822;41.468;13.560;2023-04-05T10:35:27;14.00;59.10
63317;DHT22;49822;41.468;13.560;2023-04-05T10:38:25;14.10;60.90
63317;DHT22;49822;41.468;13.560;2023-04-05T10:40:56;14.30;59.80
63317;DHT22;49822;41.468;13.560;2023-04-05T10:43:25;14.60;58.80
63317;DHT22;49822;41.468;13.560;2023-04-05T10:45:54;14.70;58.70
63317;DHT22;49822;41.468;13.560;2023-04-05T10:51:11;14.20;58.90
63317;DHT22;49822;41.468;13.560;2023-04-05T10:53:40;14.20;58.70
63317;DHT22;49822;41.468;13.560;2023-04-05T10:56:07;14.40;59.50
63317;DHT22;49822;41.468;13.560;2023-04-05T10:58:36;14.10;58.50
63317;DHT22;49822;41.468;13.560;2023-04-05T11:01:06;14.10;59.40
63317;DHT22;49822;41.468;13.560;2023-04-05T11:06:21;14.10;58.60
63317;DHT22;49822;41.468;13.560;2023-04-05T11:08:55;14.20;59.30
63317;DHT22;49822;41.468;13.560;2023-04-05T11:11:23;14.40;59.00
63317;DHT22;49822;41.468;13.560;2023-04-05T11:13:57;14.40;59.20
63317;DHT22;49822;41.468;13.560;2023-04-05T11:16:39;14.50;58.90
63317;DHT22;49822;41.468;13.560;2023-04-05T11:19:07;14.40;58.50
63317;DHT22;49822;41.468;13.560;2023-04-05T11:21:35;14.40;58.40
63317;DHT22;49822;41.468;13.560;2023-04-05T11:24:10;14.40;59.00
63317;DHT22;49822;41.468;13.560;2023-04-05T11:29:15;14.60;58.70
63317;DHT22;49822;41.468;13.560;2023-04-05T11:32:05;14.60;58.90
63317;DHT22;49822;41.468;13.560;2023-04-05T11:34:35;14.50;58.40
63317;DHT22;49822;41.468;13.560;2023-04-05T11:37:02;14.50;59.10
63317;DHT22;49822;41.468;13.560;2023-04-05T11:39:30;14.50;58.60
63317;DHT22;49822;41.468;13.560;2023-04-05T11:44:25;14.60;58.90
63317;DHT22;49822;41.468;13.560;2023-04-05T11:46:53;14.40;58.30
63317;DHT22;49822;41.468;13.560;2023-04-05T11:49:22;14.20;58.80
63317;DHT22;49822;41.468;13.560;2023-04-05T11:51:53;14.00;57.80
63317;DHT22;49822;41.468;13.560;2023-04-05T11:54:29;14.00;58.60
63317;DHT22;49822;41.468;13.560;2023-04-05T11:56:58;14.10;59.50
63317;DHT22;49822;41.468;13.560;2023-04-05T11:59:34;14.00;58.90
63317;DHT22;49822;41.468;13.560;2023-04-05T12:02:04;14.10;59.50
63317;DHT22;49822;41.468;13.560;2023-04-05T12:04:34;14.00;59.40
63317;DHT22;49822;41.468;13.560;2023-04-05T12:07:16;14.10;59.80
63317;DHT22;49822;41.468;13.560;2023-04-05T12:12:41;14.30;59.30
